Time;durP1;ratioP1;P1;durP2;ratioP2;P2;SDS_P1;SDS_P2;PMS_P1;PMS_P2;Temp;Humidity;BMP_temperature;BMP_pressure;BME280_temperature;BME280_humidity;BME280_pressure;Samples;Min_cycle;Max_cycle;Signal;HPM_P1;HPM_P2
2022/07/12 00:00:51;;;;;;;1.40;1.10;;;;;;;11.32;91.02;96973.94;108830;1264;22777;-80
2022/07/12 00:03:23;;;;;;;3.00;1.40;;;;;;;11.33;91.19;96971.81;108880;1264;22542;-80
2022/07/12 00:06:03;;;;;;;1.80;1.20;;;;;;;11.34;91.34;96975.14;106803;1263;2557273;-80
2022/07/12 00:08:36;;;;;;;2.40;1.50;;;;;;;11.36;91.49;96972.96;108818;1264;24252;-80
2022/07/12 00:11:15;;;;;;;2.60;1.40;;;;;;;11.39;91.67;96971.40;108857;1264;22742;-80
2022/07/12 00:13:53;;;;;;;1.80;1.20;;;;;;;11.40;91.61;96972.13;108832;1264;22542;-81
2022/07/12 00:16:24;;;;;;;2.40;1.20;;;;;;;11.37;91.69;96970.77;108711;1264;63124;-80
2022/07/12 00:19:02;;;;;;;2.30;1.20;;;;;;;11.37;91.87;96976.56;108912;1264;22581;-80
2022/07/12 00:21:36;;;;;;;1.50;1.40;;;;;;;11.36;91.81;96980.98;108890;1264;22517;-80
2022/07/12 00:24:09;;;;;;;1.50;1.00;;;;;;;11.36;91.79;96984.16;108845;1264;22672;-81
2022/07/12 00:26:41;;;;;;;1.70;1.20;;;;;;;11.35;91.86;96985.44;108720;1264;83423;-80
2022/07/12 00:29:15;;;;;;;2.10;1.30;;;;;;;11.38;91.83;96986.11;108792;1264;24199;-81
2022/07/12 00:31:54;;;;;;;1.30;1.10;;;;;;;11.39;91.76;96985.09;108862;1264;22629;-81
2022/07/12 00:34:27;;;;;;;1.80;1.30;;;;;;;11.43;91.92;96984.98;108826;1262;22611;-81
2022/07/12 00:37:03;;;;;;;1.20;1.10;;;;;;;11.46;91.98;96988.37;108736;1264;62567;-81
2022/07/12 00:39:35;;;;;;;2.20;1.30;;;;;;;11.45;91.83;96982.20;108936;1263;24268;-80
2022/07/12 00:42:13;;;;;;;1.30;1.00;;;;;;;11.46;91.86;96984.75;108890;1264;22548;-80
2022/07/12 00:44:47;;;;;;;1.70;1.20;;;;;;;11.44;91.85;96984.61;108844;1264;22532;-81
2022/07/12 00:47:36;;;;;;;2.40;1.10;;;;;;;11.41;91.98;96982.93;108698;1264;84098;-81
2022/07/12 00:50:20;;;;;;;1.50;1.10;;;;;;;11.40;92.03;96987.27;108866;1264;22550;-80
2022/07/12 00:52:55;;;;;;;2.10;1.30;;;;;;;11.40;92.17;96981.54;108901;1264;22569;-80
2022/07/12 00:55:29;;;;;;;2.00;1.00;;;;;;;11.42;92.23;96978.19;108686;1264;98142;-80
2022/07/12 00:58:00;;;;;;;1.50;1.20;;;;;;;11.42;92.33;96983.94;108870;1264;22568;-80
2022/07/12 01:00:34;;;;;;;1.70;1.10;;;;;;;11.42;92.44;96984.57;108852;1264;22579;-80
2022/07/12 01:03:06;;;;;;;2.10;1.30;;;;;;;11.42;92.65;96985.73;108960;1264;22644;-81
2022/07/12 01:05:40;;;;;;;1.40;1.10;;;;;;;11.45;92.62;96987.20;108611;1264;144553;-81
2022/07/12 01:08:17;;;;;;;2.20;1.20;;;;;;;11.47;92.63;96983.95;108870;1264;22691;-80
2022/07/12 01:10:51;;;;;;;1.90;1.30;;;;;;;11.50;92.72;96989.55;108861;1264;22537;-80
2022/07/12 01:13:23;;;;;;;2.30;1.30;;;;;;;11.53;92.72;96986.73;108878;1264;24011;-81
2022/07/12 01:15:59;;;;;;;2.10;1.10;;;;;;;11.54;92.78;96988.00;107287;1264;1864037;-81
2022/07/12 01:18:31;;;;;;;1.30;1.10;;;;;;;11.55;92.82;96989.17;108819;1264;22562;-81
2022/07/12 01:21:09;;;;;;;1.80;1.20;;;;;;;11.55;92.79;96984.11;108779;1262;22555;-80
2022/07/12 01:23:42;;;;;;;1.30;1.20;;;;;;;11.58;92.84;96986.65;108844;1263;22541;-80
2022/07/12 01:26:15;;;;;;;1.50;1.30;;;;;;;11.58;92.83;96989.25;108690;1264;82880;-80
2022/07/12 01:28:49;;;;;;;2.00;1.10;;;;;;;11.58;92.91;96987.59;108875;1264;22535;-80
2022/07/12 01:31:26;;;;;;;1.30;1.20;;;;;;;11.57;93.00;96988.25;108879;1261;22538;-80
2022/07/12 01:34:06;;;;;;;2.10;1.40;;;;;;;11.54;93.12;96985.08;108790;1264;22562;-81
2022/07/12 01:36:45;;;;;;;2.80;1.10;;;;;;;11.53;93.23;96983.95;108640;1264;93313;-80
2022/07/12 01:39:17;;;;;;;2.10;1.30;;;;;;;11.53;93.28;96983.31;108897;1264;22611;-81
2022/07/12 01:41:58;;;;;;;1.80;1.20;;;;;;;11.53;93.28;96979.60;108869;1264;24694;-80
2022/07/12 01:44:35;;;;;;;1.90;1.30;;;;;;;11.54;93.24;96980.98;108874;1264;22535;-80
2022/07/12 01:47:12;;;;;;;2.70;1.30;;;;;;;11.55;93.19;96976.41;108543;1263;210688;-80
2022/07/12 01:49:50;;;;;;;2.40;1.10;;;;;;;11.56;93.27;96972.70;108841;1263;22615;-80
2022/07/12 01:52:25;;;;;;;1.60;1.30;;;;;;;11.57;93.24;96976.52;108827;1263;22529;-80
2022/07/12 01:55:10;;;;;;;2.10;1.30;;;;;;;11.58;93.22;96973.16;108808;1264;22573;-80
2022/07/12 01:57:45;;;;;;;3.10;1.10;;;;;;;11.60;93.14;96974.05;108811;1264;25413;-81
2022/07/12 02:00:25;;;;;;;1.60;0.90;;;;;;;11.63;93.11;96971.58;108849;1264;22539;-81
2022/07/12 02:03:02;;;;;;;1.30;1.10;;;;;;;11.66;93.19;96973.26;108841;1263;22543;-81
2022/07/12 02:05:44;;;;;;;2.10;1.50;;;;;;;11.67;93.15;96973.67;106944;1264;2314544;-81
2022/07/12 02:08:16;;;;;;;1.90;1.40;;;;;;;11.70;93.11;96970.06;108816;1264;22539;-81
2022/07/12 02:10:50;;;;;;;1.50;1.20;;;;;;;11.72;93.09;96971.36;108816;1264;26444;-80
2022/07/12 02:13:28;;;;;;;2.00;1.30;;;;;;;11.74;93.08;96965.93;108854;1264;22537;-80
2022/07/12 02:16:07;;;;;;;3.20;1.30;;;;;;;11.76;92.99;96973.98;108630;1264;118359;-81
2022/07/12 02:18:39;;;;;;;3.60;1.20;;;;;;;11.79;93.04;96973.77;108864;1264;23532;-80
2022/07/12 02:21:12;;;;;;;2.90;1.50;;;;;;;11.81;92.98;96972.12;108881;1262;24383;-80
2022/07/12 02:23:44;;;;;;;3.30;1.50;;;;;;;11.81;92.95;96971.59;108825;1264;23308;-80
2022/07/12 02:26:17;;;;;;;1.70;1.30;;;;;;;11.81;92.91;96971.31;108623;1264;89318;-80
2022/07/12 02:28:51;;;;;;;2.80;1.20;;;;;;;11.84;92.95;96966.86;108690;1264;22766;-81
2022/07/12 02:31:27;;;;;;;2.80;1.40;;;;;;;11.83;92.86;96965.22;108739;1264;22545;-81
2022/07/12 02:33:58;;;;;;;2.60;1.50;;;;;;;11.82;92.92;96966.06;108795;1264;22755;-80
2022/07/12 02:36:38;;;;;;;2.00;1.30;;;;;;;11.81;92.96;96971.52;108508;1264;132780;-81
2022/07/12 02:39:12;;;;;;;3.50;1.40;;;;;;;11.80;93.14;96969.35;108774;1264;22708;-81
2022/07/12 02:41:48;;;;;;;2.20;1.60;;;;;;;11.81;93.19;96967.66;108758;1264;22539;-81
2022/07/12 02:44:24;;;;;;;3.10;2.00;;;;;;;11.82;93.19;96971.96;108874;1262;22551;-81
2022/07/12 02:46:58;;;;;;;2.40;1.60;;;;;;;11.82;93.18;96970.85;108567;1263;107168;-80
2022/07/12 02:49:29;;;;;;;2.30;1.50;;;;;;;11.83;93.27;96973.61;108818;1264;23931;-80
2022/07/12 02:52:03;;;;;;;4.90;1.70;;;;;;;11.83;93.32;96974.30;108795;1264;22545;-80
2022/07/12 02:54:37;;;;;;;2.80;1.80;;;;;;;11.84;93.46;96972.65;108674;1264;22523;-80
2022/07/12 02:57:09;;;;;;;3.70;2.10;;;;;;;11.83;93.50;96976.64;108606;1264;90111;-81
2022/07/12 02:59:43;;;;;;;4.00;1.90;;;;;;;11.82;93.64;96973.87;108748;1264;23137;-80
2022/07/12 03:02:14;;;;;;;2.40;1.90;;;;;;;11.82;93.70;96968.45;108766;1264;22554;-81
2022/07/12 03:04:50;;;;;;;2.90;2.00;;;;;;;11.84;93.75;96969.77;108730;1263;22629;-81
2022/07/12 03:07:27;;;;;;;2.40;2.10;;;;;;;11.85;93.83;96964.88;104624;1264;5317460;-80
2022/07/12 03:10:04;;;;;;;4.20;2.00;;;;;;;11.85;93.87;96964.88;108870;1263;22564;-80
2022/07/12 03:12:40;;;;;;;3.60;1.70;;;;;;;11.88;93.92;96966.28;108871;1264;22536;-81
2022/07/12 03:15:16;;;;;;;3.60;2.40;;;;;;;11.95;93.83;96969.09;108714;1264;73358;-80
2022/07/12 03:17:53;;;;;;;2.90;2.30;;;;;;;11.98;93.78;96970.79;108827;1264;22546;-80
2022/07/12 03:20:27;;;;;;;3.50;2.50;;;;;;;12.03;93.88;96972.77;108854;1263;25231;-81
2022/07/12 03:23:01;;;;;;;4.50;2.50;;;;;;;12.05;93.68;96975.40;108793;1264;22590;-81
2022/07/12 03:25:37;;;;;;;2.20;2.00;;;;;;;12.04;93.57;96977.54;108652;1261;86739;-81
2022/07/12 03:28:11;;;;;;;5.10;2.20;;;;;;;12.03;93.46;96981.42;108893;1263;22590;-80
2022/07/12 03:30:48;;;;;;;2.80;2.00;;;;;;;12.06;93.47;96979.59;108890;1264;24184;-81
2022/07/12 03:33:21;;;;;;;2.50;1.80;;;;;;;12.07;93.36;96978.14;108867;1264;22585;-81
2022/07/12 03:35:54;;;;;;;2.30;1.70;;;;;;;12.05;93.14;96979.27;108546;1264;110306;-81
2022/07/12 03:38:25;;;;;;;2.80;1.70;;;;;;;12.03;93.16;96976.75;108860;1264;22619;-80
2022/07/12 03:40:58;;;;;;;1.50;1.40;;;;;;;12.02;93.25;96972.88;108869;1262;22562;-81
2022/07/12 03:43:34;;;;;;;2.50;1.20;;;;;;;12.03;93.16;96974.73;108888;1264;22566;-81
2022/07/12 03:46:07;;;;;;;1.80;1.50;;;;;;;12.03;92.99;96970.37;108656;1263;119547;-80
2022/07/12 03:48:39;;;;;;;2.90;1.60;;;;;;;12.02;92.87;96972.66;108894;1264;22539;-80
2022/07/12 03:51:11;;;;;;;1.80;1.20;;;;;;;12.05;92.85;96980.40;108854;1264;22568;-81
2022/07/12 03:53:45;;;;;;;1.90;1.40;;;;;;;12.08;92.83;96975.73;108861;1264;23816;-81
2022/07/12 03:57:13;;;;;;;1.70;1.30;;;;;;;12.06;92.82;96980.48;108551;1263;212137;-81
2022/07/12 03:59:09;;;;;;;1.10;1.00;;;;;;;12.03;92.85;96983.39;108728;1264;22532;-81
2022/07/12 04:01:43;;;;;;;2.00;1.40;;;;;;;12.04;92.92;96982.48;108759;1264;24264;-81
2022/07/12 04:04:17;;;;;;;2.70;0.90;;;;;;;12.03;92.76;96984.83;108758;1263;24336;-81
2022/07/12 04:06:48;;;;;;;1.40;1.00;;;;;;;12.04;92.96;96981.84;108506;1263;172441;-82
2022/07/12 04:09:19;;;;;;;3.00;1.00;;;;;;;12.09;92.68;96977.97;108808;1264;24269;-81
2022/07/12 04:11:51;;;;;;;1.20;0.90;;;;;;;12.12;92.84;96980.88;108796;1264;23316;-82
2022/07/12 04:14:23;;;;;;;1.50;1.00;;;;;;;12.14;92.49;96980.44;108684;1263;22718;-82
2022/07/12 04:17:01;;;;;;;2.80;1.40;;;;;;;12.13;92.30;96981.77;108706;1264;74331;-81
2022/07/12 04:19:33;;;;;;;;;;;;;;;12.13;92.30;96977.89;108799;1264;22567;-81
2022/07/12 04:22:07;;;;;;;1.40;0.90;;;;;;;12.14;92.18;96982.24;108812;1264;22593;-81
2022/07/12 04:24:38;;;;;;;2.10;1.30;;;;;;;12.12;92.07;96981.63;108839;1264;22520;-81
2022/07/12 04:27:11;;;;;;;2.10;0.80;;;;;;;12.13;92.12;96979.86;107211;1263;1896471;-81
2022/07/12 04:29:44;;;;;;;1.30;0.90;;;;;;;12.16;92.08;96981.16;108930;1262;22625;-81
2022/07/12 04:32:16;;;;;;;1.20;1.10;;;;;;;12.12;92.02;96980.08;108872;1264;22533;-81
2022/07/12 04:34:51;;;;;;;3.30;1.10;;;;;;;12.05;92.27;96978.21;108928;1264;22544;-81
2022/07/12 04:37:33;;;;;;;2.50;1.10;;;;;;;11.99;92.68;96985.77;108695;1264;71045;-81
2022/07/12 04:40:05;;;;;;;2.70;1.90;;;;;;;11.94;92.72;96984.67;108874;1263;23368;-81
2022/07/12 04:42:36;;;;;;;4.50;1.40;;;;;;;11.97;93.04;96980.14;108927;1264;22908;-81
2022/07/12 04:45:09;;;;;;;1.20;1.10;;;;;;;12.02;93.01;96977.14;108679;1264;108013;-81
2022/07/12 04:47:41;;;;;;;3.40;1.20;;;;;;;12.07;92.98;96976.39;108897;1264;24016;-81
2022/07/12 04:50:13;;;;;;;1.50;1.40;;;;;;;12.12;92.98;96975.98;108892;1264;22522;-81
2022/07/12 04:52:44;;;;;;;4.90;1.30;;;;;;;12.18;93.20;96981.56;108872;1262;22558;-81
2022/07/12 04:55:16;;;;;;;2.00;1.20;;;;;;;12.18;93.09;96989.64;108543;1264;192886;-81
2022/07/12 04:57:48;;;;;;;1.10;0.90;;;;;;;12.15;92.63;96991.22;108851;1264;24276;-81
2022/07/12 05:00:21;;;;;;;0.90;0.80;;;;;;;12.16;92.82;96986.95;108869;1263;22549;-81
2022/07/12 05:02:53;;;;;;;2.00;1.00;;;;;;;12.17;93.02;96980.94;108861;1264;22692;-81
2022/07/12 05:05:25;;;;;;;1.90;0.80;;;;;;;12.24;93.35;96982.90;108685;1264;118623;-81
2022/07/12 05:07:56;;;;;;;2.90;0.80;;;;;;;12.30;93.29;96981.94;108919;1263;22542;-82
2022/07/12 05:10:28;;;;;;;1.30;0.90;;;;;;;12.27;92.95;96982.77;108863;1264;22539;-81
2022/07/12 05:13:00;;;;;;;1.40;1.00;;;;;;;12.29;93.10;96980.41;108873;1264;24376;-81
2022/07/12 05:15:31;;;;;;;0.90;0.90;;;;;;;12.33;93.01;96977.40;108729;1264;79592;-81
2022/07/12 05:18:04;;;;;;;2.20;1.00;;;;;;;12.31;92.76;96976.92;108899;1264;22682;-81
2022/07/12 05:20:36;;;;;;;0.70;0.70;;;;;;;12.48;93.06;96980.66;108891;1264;23047;-81
2022/07/12 05:23:08;;;;;;;1.40;0.90;;;;;;;13.11;92.89;96974.18;108889;1263;24846;-81
2022/07/12 05:25:40;;;;;;;1.10;0.90;;;;;;;13.09;91.11;96979.20;108544;1263;167267;-81
2022/07/12 05:28:14;;;;;;;2.30;0.90;;;;;;;12.98;90.87;96979.70;108907;1264;25455;-81
2022/07/12 05:30:49;;;;;;;2.10;1.10;;;;;;;12.86;90.87;96980.48;108873;1264;24142;-81
2022/07/12 05:33:22;;;;;;;1.60;0.80;;;;;;;12.81;91.03;96975.96;108882;1262;22539;-81
2022/07/12 05:35:54;;;;;;;2.90;1.30;;;;;;;12.79;91.24;96979.32;108704;1264;87972;-81
2022/07/12 05:38:27;;;;;;;1.80;1.10;;;;;;;12.78;91.45;96981.56;108868;1263;22551;-81
2022/07/12 05:41:00;;;;;;;1.40;0.90;;;;;;;12.80;91.17;96981.28;108855;1264;22579;-81
2022/07/12 05:43:33;;;;;;;4.10;1.00;;;;;;;12.74;90.91;96981.08;108861;1264;22539;-81
2022/07/12 05:46:05;;;;;;;2.00;1.30;;;;;;;12.72;90.82;96980.20;108560;1264;116650;-81
2022/07/12 05:48:37;;;;;;;1.90;1.10;;;;;;;12.74;90.98;96981.71;108907;1264;22555;-81
2022/07/12 05:53:59;;;;;;;1.80;1.10;;;;;;;13.00;90.84;96977.48;108868;1263;22619;-81
2022/07/12 05:56:35;;;;;;;0.90;0.60;;;;;;;13.03;90.40;96976.82;108630;1264;161643;-81
2022/07/12 05:59:10;;;;;;;0.80;0.50;;;;;;;13.16;90.82;96978.75;108942;1264;22573;-81
2022/07/12 06:01:46;;;;;;;1.20;0.90;;;;;;;13.29;90.51;96976.90;108747;1263;23049;-81
2022/07/12 06:04:18;;;;;;;0.80;0.70;;;;;;;13.35;90.11;96977.02;108859;1262;22550;-81
2022/07/12 06:06:50;;;;;;;0.90;0.80;;;;;;;13.60;90.46;96980.04;108721;1264;89919;-81
2022/07/12 06:09:24;;;;;;;4.10;1.10;;;;;;;13.83;89.88;96979.45;108887;1263;24358;-81
2022/07/12 06:11:58;;;;;;;1.60;1.00;;;;;;;14.06;89.04;96976.23;108842;1264;22836;-81
2022/07/12 06:14:29;;;;;;;1.50;0.90;;;;;;;14.49;88.54;96973.35;108865;1264;26010;-81
2022/07/12 06:17:21;;;;;;;2.30;1.10;;;;;;;17.53;89.84;96964.01;107077;1264;2243946;-82
2022/07/12 06:19:52;;;;;;;2.10;0.90;;;;;;;20.60;80.63;96966.45;108854;1264;22655;-81
2022/07/12 06:22:27;;;;;;;1.10;0.80;;;;;;;21.05;72.85;96963.46;108894;1264;22733;-81
2022/07/12 06:24:58;;;;;;;2.50;0.80;;;;;;;22.88;71.12;96967.02;108879;1264;23851;-82
2022/07/12 06:27:41;;;;;;;0.90;0.70;;;;;;;23.64;64.59;96966.92;108875;1264;24346;-82
2022/07/12 06:30:16;;;;;;;1.70;0.60;;;;;;;23.17;62.64;96969.79;108872;1264;22556;-81
2022/07/12 06:32:53;;;;;;;1.30;0.50;;;;;;;22.30;61.89;96964.33;108867;1263;22984;-82
2022/07/12 06:35:34;;;;;;;1.40;0.70;;;;;;;22.09;62.88;96958.73;108663;1264;105577;-81
2022/07/12 06:38:11;;;;;;;0.70;0.70;;;;;;;22.40;61.52;96960.28;108898;1264;22546;-81
2022/07/12 06:40:54;;;;;;;1.20;0.50;;;;;;;21.57;58.00;96961.07;108889;1263;22566;-81
2022/07/12 06:43:25;;;;;;;1.80;0.80;;;;;;;20.61;59.01;96963.28;108909;1264;23357;-81
2022/07/12 06:46:00;;;;;;;1.40;0.60;;;;;;;21.51;62.04;96958.48;108579;1263;79130;-81
2022/07/12 06:48:31;;;;;;;1.80;1.00;;;;;;;21.99;59.89;96960.47;108888;1264;22559;-81
2022/07/12 06:51:07;;;;;;;3.20;0.60;;;;;;;22.05;58.22;96956.16;108862;1263;22504;-81
2022/07/12 06:53:49;;;;;;;1.00;0.60;;;;;;;21.95;57.94;96958.48;108861;1264;25447;-81
2022/07/12 06:56:28;;;;;;;0.80;0.50;;;;;;;23.05;58.16;96958.63;108674;1264;83375;-81
2022/07/12 06:59:04;;;;;;;1.20;0.60;;;;;;;24.90;56.14;96956.09;108830;1264;24072;-81
2022/07/12 07:01:36;;;;;;;1.90;0.50;;;;;;;23.50;51.56;96965.81;108841;1263;24571;-81
2022/07/12 07:04:10;;;;;;;4.10;0.60;;;;;;;20.80;53.37;96972.90;108836;1263;25215;-81
2022/07/12 07:06:54;;;;;;;1.70;0.60;;;;;;;18.65;57.27;96979.45;108664;1264;81038;-80
2022/07/12 07:09:27;;;;;;;0.90;0.60;;;;;;;17.70;60.47;96979.40;108857;1264;22750;-80
2022/07/12 07:11:59;;;;;;;1.00;0.60;;;;;;;17.01;62.63;96978.48;108923;1264;23307;-80
2022/07/12 07:14:39;;;;;;;1.00;0.80;;;;;;;16.52;64.50;96977.48;108838;1264;22619;-80
2022/07/12 07:17:22;;;;;;;2.30;0.80;;;;;;;16.17;65.95;96979.69;108591;1263;116328;-80
2022/07/12 07:19:59;;;;;;;1.40;0.70;;;;;;;15.93;67.30;96979.77;108872;1264;25232;-80
2022/07/12 07:22:38;;;;;;;1.10;0.70;;;;;;;15.89;68.30;96978.89;108839;1263;22612;-80
2022/07/12 07:25:11;;;;;;;1.10;0.70;;;;;;;15.92;69.18;96979.48;106283;1264;5382408;-80
2022/07/12 07:27:46;;;;;;;2.40;0.70;;;;;;;15.86;69.41;96984.59;108738;1262;47508;-81
2022/07/12 07:33:29;;;;;;;1.60;0.90;;;;;;;15.76;70.60;96986.15;108524;1266;22552;-80
2022/07/12 07:36:10;;;;;;;2.60;0.90;;;;;;;15.59;71.03;96987.36;106971;1264;2313015;-80
2022/07/12 07:38:47;;;;;;;1.00;0.90;;;;;;;15.59;71.71;96990.23;108865;1264;23876;-80
2022/07/12 07:41:21;;;;;;;3.60;0.80;;;;;;;15.64;72.13;96990.48;108867;1264;22643;-80
2022/07/12 07:43:55;;;;;;;1.30;1.10;;;;;;;15.64;72.40;96991.02;108920;1264;22719;-80
2022/07/12 07:46:32;;;;;;;1.90;1.00;;;;;;;15.55;72.50;96991.09;108663;1264;110684;-80
2022/07/12 07:49:16;;;;;;;1.10;0.90;;;;;;;15.40;72.68;96984.76;108876;1264;22987;-80
2022/07/12 07:51:53;;;;;;;1.90;0.90;;;;;;;15.41;73.28;96985.91;108860;1264;22605;-80
2022/07/12 07:54:32;;;;;;;1.70;0.80;;;;;;;15.42;73.37;96984.77;108819;1264;24407;-80
2022/07/12 07:57:07;;;;;;;0.60;0.60;;;;;;;15.40;73.72;96988.88;108620;1262;123588;-80
2022/07/12 07:59:44;;;;;;;0.80;0.70;;;;;;;15.45;73.93;96989.09;108874;1264;22550;-80
2022/07/12 08:02:22;;;;;;;1.00;0.80;;;;;;;15.54;73.84;96993.02;108901;1264;22530;-81
2022/07/12 08:05:04;;;;;;;3.00;0.60;;;;;;;15.50;73.48;96996.96;108876;1264;25428;-80
2022/07/12 08:07:44;;;;;;;1.10;0.40;;;;;;;15.60;73.44;96997.06;108879;1263;22563;-80
2022/07/12 08:10:21;;;;;;;1.10;0.60;;;;;;;15.67;72.90;97002.67;108862;1263;24002;-80
2022/07/12 08:13:08;;;;;;;1.40;0.60;;;;;;;15.69;73.07;97001.65;108890;1264;22541;-80
2022/07/12 08:15:52;;;;;;;1.20;0.50;;;;;;;15.69;72.41;97004.58;108631;1264;95738;-81
2022/07/12 08:18:28;;;;;;;0.60;0.50;;;;;;;15.73;72.48;97002.02;108833;1264;22551;-80
2022/07/12 08:21:01;;;;;;;0.60;0.60;;;;;;;15.82;72.13;97001.73;108874;1264;22695;-80
2022/07/12 08:23:33;;;;;;;2.10;1.70;;;;;;;15.80;71.61;97006.71;108863;1264;22531;-80
2022/07/12 08:26:12;;;;;;;2.10;1.40;;;;;;;15.91;72.20;97009.48;107088;1264;2164524;-80
2022/07/12 08:28:48;;;;;;;1.30;0.80;;;;;;;16.00;71.61;97010.23;108875;1263;22628;-80
2022/07/12 08:31:20;;;;;;;0.50;0.50;;;;;;;16.08;71.52;97011.31;108880;1264;22532;-80
2022/07/12 08:34:05;;;;;;;1.70;0.80;;;;;;;16.23;70.73;97009.98;108874;1263;22537;-80
2022/07/12 08:36:47;;;;;;;1.00;0.60;;;;;;;16.20;69.18;97011.80;108675;1264;92938;-81
2022/07/12 08:39:19;;;;;;;0.80;0.50;;;;;;;16.13;69.53;97012.04;108845;1264;24136;-80
2022/07/12 08:41:52;;;;;;;0.60;0.60;;;;;;;16.60;70.87;97010.23;108851;1264;22565;-80
2022/07/12 08:44:25;;;;;;;1.70;0.60;;;;;;;17.57;68.09;97008.25;108920;1264;22526;-80
2022/07/12 08:47:02;;;;;;;1.60;0.40;;;;;;;17.74;65.67;97004.60;108650;1264;120580;-81
2022/07/12 08:49:38;;;;;;;0.50;0.50;;;;;;;17.73;64.78;97001.31;108859;1264;25358;-81
2022/07/12 08:52:30;;;;;;;0.80;0.40;;;;;;;18.62;64.03;96999.75;108880;1264;22535;-81
2022/07/12 08:55:16;;;;;;;2.50;0.70;;;;;;;19.67;62.52;96989.18;108844;1264;22766;-80
2022/07/12 08:57:54;;;;;;;0.80;0.50;;;;;;;20.14;59.24;96988.31;108911;1264;22596;-80
2022/07/12 09:00:30;;;;;;;1.00;0.40;;;;;;;19.64;59.70;96990.05;108925;1262;22517;-80
2022/07/12 09:03:06;;;;;;;1.50;0.60;;;;;;;19.46;60.08;96992.49;108889;1264;23214;-80
2022/07/12 09:05:41;;;;;;;1.10;0.40;;;;;;;19.09;59.78;96988.81;108692;1264;98845;-83
2022/07/12 09:08:13;;;;;;;0.40;0.30;;;;;;;18.94;59.16;96990.23;108867;1264;22532;-81
2022/07/12 09:11:06;;;;;;;1.30;0.40;;;;;;;19.19;59.22;96990.34;108850;1264;22538;-81
2022/07/12 09:13:55;;;;;;;0.50;0.40;;;;;;;18.86;57.42;96986.59;108836;1263;23140;-81
2022/07/12 09:16:27;;;;;;;0.80;0.50;;;;;;;18.50;58.28;96985.66;107601;1264;1517781;-82
2022/07/12 09:19:22;;;;;;;1.90;0.40;;;;;;;18.25;58.92;96987.08;108787;1264;22565;-81
2022/07/12 09:21:57;;;;;;;0.70;0.30;;;;;;;18.33;60.41;96987.80;108927;1264;23954;-81
2022/07/12 09:24:31;;;;;;;2.20;0.70;;;;;;;18.16;59.36;96983.14;108938;1264;23477;-80
2022/07/12 09:27:09;;;;;;;1.30;0.50;;;;;;;18.20;59.96;96979.13;108696;1264;113773;-81
2022/07/12 09:29:51;;;;;;;1.40;0.70;;;;;;;18.29;60.11;96981.33;108871;1264;22527;-81
2022/07/12 09:38:16;;;;;;;1.10;0.50;;;;;;;18.00;60.22;96981.64;108795;1264;22567;-79
2022/07/12 09:40:49;;;;;;;2.00;0.70;;;;;;;18.06;59.40;96977.21;108819;1264;22551;-79
2022/07/12 09:43:24;;;;;;;1.00;0.60;;;;;;;18.32;59.55;96965.65;108879;1264;22719;-79
2022/07/12 09:46:28;;;;;;;2.90;0.90;;;;;;;18.63;58.97;96959.75;108497;1264;77087;-79
2022/07/12 09:49:04;;;;;;;1.30;0.50;;;;;;;18.23;59.29;96981.61;108588;1263;23935;-79
2022/07/12 09:51:38;;;;;;;1.60;0.60;;;;;;;17.23;60.44;97016.17;108527;1264;22612;-77
2022/07/12 09:54:20;;;;;;;1.80;0.90;;;;;;;16.13;63.09;97015.46;108466;1264;22587;-79
2022/07/12 09:57:01;;;;;;;2.90;0.70;;;;;;;15.52;65.36;97006.06;108496;1264;143841;-79
2022/07/12 09:59:38;;;;;;;2.00;0.60;;;;;;;15.18;66.91;97003.31;108405;1264;22533;-79
2022/07/12 10:02:17;;;;;;;1.50;1.00;;;;;;;15.01;68.92;97004.46;108566;1263;22550;-79
2022/07/12 10:04:53;;;;;;;0.90;0.60;;;;;;;14.94;70.47;97014.64;108507;1264;23581;-79
2022/07/12 10:07:26;;;;;;;2.90;1.00;;;;;;;15.00;71.54;97023.71;108308;1264;120976;-80
2022/07/12 10:09:59;;;;;;;1.50;1.00;;;;;;;14.94;72.48;97046.35;108599;1264;22603;-80
2022/07/12 10:12:33;;;;;;;1.00;0.50;;;;;;;14.80;73.90;97063.20;108570;1264;22535;-79
2022/07/12 10:15:10;;;;;;;0.80;0.40;;;;;;;14.38;74.07;97072.10;108572;1264;22561;-79
2022/07/12 10:17:55;;;;;;;1.00;0.30;;;;;;;13.86;73.01;97063.79;108571;1264;23850;-80
2022/07/12 10:20:30;;;;;;;1.20;0.40;;;;;;;13.65;73.32;97063.69;108864;1264;22552;-80
2022/07/12 10:23:31;;;;;;;2.50;0.80;;;;;;;13.55;73.95;97063.94;108889;1264;22565;-80
2022/07/12 10:26:24;;;;;;;1.10;0.50;;;;;;;13.64;75.97;97060.35;108710;1263;78678;-80
2022/07/12 10:29:02;;;;;;;1.90;0.70;;;;;;;13.80;76.98;97059.23;108876;1264;22537;-80
2022/07/12 10:31:38;;;;;;;1.90;0.80;;;;;;;13.98;77.69;97055.52;108849;1264;22566;-80
2022/07/12 10:34:27;;;;;;;1.00;0.50;;;;;;;14.28;78.55;97051.11;108839;1264;24299;-80
2022/07/12 10:37:14;;;;;;;1.10;0.50;;;;;;;14.64;78.69;97043.73;108596;1264;137379;-80
2022/07/12 10:40:15;;;;;;;3.00;0.70;;;;;;;14.97;78.10;97040.83;108827;1264;22623;-80
2022/07/12 10:43:18;;;;;;;1.00;0.50;;;;;;;15.24;78.09;97040.40;108848;1264;24499;-80
2022/07/12 10:45:51;;;;;;;1.90;0.70;;;;;;;15.81;77.89;97027.41;107187;1264;2011344;-81
2022/07/12 10:48:25;;;;;;;1.30;0.40;;;;;;;16.42;77.63;97023.10;108803;1264;25808;-80
2022/07/12 10:50:59;;;;;;;1.50;0.50;;;;;;;16.89;76.55;97014.76;108728;1264;23865;-80
2022/07/12 10:53:38;;;;;;;1.50;0.70;;;;;;;17.13;75.96;97010.91;108797;1264;22565;-80
2022/07/12 10:56:27;;;;;;;2.50;0.80;;;;;;;17.35;75.24;97006.44;108469;1264;80412;-80
2022/07/12 10:59:03;;;;;;;0.80;0.50;;;;;;;17.32;75.29;96995.05;108774;1264;22651;-80
2022/07/12 11:01:36;;;;;;;1.80;0.90;;;;;;;17.23;74.42;96992.34;108348;1264;22543;-80
2022/07/12 11:04:13;;;;;;;2.50;0.90;;;;;;;16.93;74.88;96989.09;108798;1264;23173;-80
2022/07/12 11:06:47;;;;;;;1.60;0.70;;;;;;;16.80;75.20;96988.70;108314;1264;87699;-79
2022/07/12 11:09:23;;;;;;;1.80;0.80;;;;;;;16.90;75.92;96984.58;108475;1264;22525;-79
2022/07/12 11:12:02;;;;;;;2.10;0.80;;;;;;;17.10;76.11;96986.16;108528;1264;24253;-80
2022/07/12 11:14:40;;;;;;;1.90;0.70;;;;;;;17.52;76.48;96992.69;108503;1264;22541;-80
2022/07/12 11:17:14;;;;;;;1.40;1.00;;;;;;;17.51;74.01;96987.83;106408;1264;2694295;-80
2022/07/12 11:19:47;;;;;;;1.60;0.70;;;;;;;17.22;73.15;96988.36;108557;1264;22746;-80
2022/07/12 11:22:25;;;;;;;1.20;0.80;;;;;;;17.06;74.42;96994.50;108488;1264;22564;-79
2022/07/12 11:25:02;;;;;;;1.20;0.80;;;;;;;17.04;74.25;96994.48;108485;1264;22933;-80
2022/07/12 11:27:37;;;;;;;1.30;0.70;;;;;;;16.92;73.38;96992.70;108503;1264;25312;-79
2022/07/12 11:30:10;;;;;;;0.90;0.80;;;;;;;16.72;72.78;96994.20;108416;1264;22902;-79
2022/07/12 11:32:47;;;;;;;0.80;0.80;;;;;;;16.72;73.72;97002.73;108514;1264;22515;-79
2022/07/12 11:35:23;;;;;;;1.40;0.80;;;;;;;16.80;73.08;96995.18;108359;1264;77160;-80
2022/07/12 11:38:08;;;;;;;2.00;0.90;;;;;;;16.98;72.47;96991.85;108512;1264;22583;-79
2022/07/12 11:40:42;;;;;;;1.00;0.80;;;;;;;17.12;70.56;96977.71;108521;1264;22525;-80
2022/07/12 11:43:17;;;;;;;1.90;0.90;;;;;;;17.01;70.58;96977.30;108823;1264;22535;-80
2022/07/12 11:45:55;;;;;;;2.60;0.80;;;;;;;17.09;70.64;96974.56;108620;1264;94086;-80
2022/07/12 11:48:37;;;;;;;3.10;0.70;;;;;;;17.16;70.70;96981.05;108862;1263;25356;-79
2022/07/12 11:51:28;;;;;;;1.20;0.60;;;;;;;17.19;69.38;96979.70;108807;1264;22546;-80
2022/07/12 11:54:05;;;;;;;0.70;0.60;;;;;;;17.42;69.43;96974.85;108790;1264;24238;-79
2022/07/12 11:56:42;;;;;;;1.40;0.70;;;;;;;17.55;69.50;96976.20;108578;1264;108965;-79
2022/07/12 11:59:14;;;;;;;2.00;0.80;;;;;;;17.73;70.08;96976.21;108582;1264;22617;-79
2022/07/12 12:02:19;;;;;;;1.50;0.60;;;;;;;17.75;69.60;96968.70;108603;1264;23739;-80
2022/07/12 12:04:56;;;;;;;0.80;0.50;;;;;;;17.87;69.61;96967.79;108532;1264;26073;-79
2022/07/12 12:07:29;;;;;;;0.70;0.50;;;;;;;17.94;68.48;96965.77;108603;1264;102034;-79
2022/07/12 12:10:11;;;;;;;0.90;0.50;;;;;;;17.93;68.18;96965.67;108787;1264;22539;-79
2022/07/12 12:12:53;;;;;;;0.80;0.50;;;;;;;17.98;68.72;96975.61;108820;1264;22549;-79
2022/07/12 12:15:38;;;;;;;2.20;0.80;;;;;;;17.87;66.93;96972.90;108577;1264;110472;-79
2022/07/12 12:18:14;;;;;;;0.90;0.70;;;;;;;17.44;66.53;96977.70;108735;1264;22687;-79